createdAt,value
2019-05-30T00:00:16.487Z,7.5
2019-05-30T00:00:26.992Z,7.5
2019-05-30T00:01:04.135Z,7.4
2019-05-30T00:01:39.025Z,7.5
2019-05-30T00:02:15.002Z,7.4
2019-05-30T00:02:50.987Z,7.4
2019-05-30T00:03:26.969Z,7.5
2019-05-30T00:04:04.847Z,7.5
2019-05-30T00:04:38.994Z,7.4
2019-05-30T00:05:14.973Z,7.5
2019-05-30T00:05:50.947Z,7.5
2019-05-30T00:06:27.039Z,7.4
2019-05-30T00:07:03.002Z,7.5
2019-05-30T00:07:38.963Z,7.6
2019-05-30T00:08:14.939Z,7.5
2019-05-30T00:08:51.052Z,7.3
2019-05-30T00:09:27.002Z,7.4
2019-05-30T00:10:03.266Z,7.3
2019-05-30T00:10:38.952Z,7.3
2019-05-30T00:11:15.031Z,7.4
2019-05-30T00:11:50.990Z,7.4
2019-05-30T00:12:26.989Z,7.4
2019-05-30T00:13:03.192Z,7.4
2019-05-30T00:13:39.026Z,7.2
2019-05-30T00:14:14.998Z,7.2
2019-05-30T00:14:50.955Z,7.2
2019-05-30T00:15:26.924Z,7.2
2019-05-30T00:16:14.923Z,7.1
2019-05-30T00:16:51.026Z,7.1
2019-05-30T00:17:26.990Z,7
2019-05-30T00:18:03.218Z,7.1
2019-05-30T00:18:38.945Z,7.1
2019-05-30T00:19:15.018Z,7
2019-05-30T00:19:50.979Z,7.1
2019-05-30T00:20:26.952Z,7.1
2019-05-30T00:21:03.216Z,7.1
2019-05-30T00:21:39.002Z,7
2019-05-30T00:22:14.973Z,6.9
2019-05-30T00:22:50.954Z,7
2019-05-30T00:23:26.921Z,7
2019-05-30T00:24:04.433Z,7
2019-05-30T00:24:51.123Z,6.9
2019-05-30T00:25:26.977Z,6.9
2019-05-30T00:26:03.679Z,6.8
2019-05-30T00:26:38.930Z,6.8
2019-05-30T00:27:15.007Z,6.8
2019-05-30T00:27:50.967Z,6.8
2019-05-30T00:28:26.943Z,6.7
2019-05-30T00:29:03.054Z,6.7
2019-05-30T00:29:39.011Z,6.7
2019-05-30T00:30:25.034Z,6.7
2019-05-30T00:30:51.019Z,6.7
2019-05-30T00:31:38.930Z,6.7
2019-05-30T00:32:15.047Z,6.6
2019-05-30T00:32:51.000Z,6.6
2019-05-30T00:33:26.963Z,6.5
2019-05-30T00:34:04.479Z,6.5
2019-05-30T00:34:39.024Z,6.5
2019-05-30T00:35:14.986Z,6.4
2019-05-30T00:35:50.960Z,6.5
2019-05-30T00:36:26.929Z,6.4
2019-05-30T00:37:04.357Z,6.4
2019-05-30T00:37:38.998Z,6.4
2019-05-30T00:38:14.954Z,6.4
2019-05-30T00:38:50.943Z,6.4
2019-05-30T00:39:27.057Z,6.4
2019-05-30T00:40:04.395Z,6.2
2019-05-30T00:40:38.951Z,6.3
2019-05-30T00:41:15.031Z,6.3
2019-05-30T00:41:51.017Z,6.3
2019-05-30T00:42:26.979Z,6.3
2019-05-30T00:43:04.097Z,6.2
2019-05-30T00:43:38.919Z,6.2
2019-05-30T00:44:15.059Z,6.2
2019-05-30T00:44:50.989Z,6.1
2019-05-30T00:45:26.941Z,6.1
2019-05-30T00:46:04.106Z,6.1
2019-05-30T00:46:39.035Z,6.1
2019-05-30T00:47:14.987Z,6.1
2019-05-30T00:47:50.975Z,6.1
2019-05-30T00:48:26.911Z,6.1
2019-05-30T00:49:04.164Z,6.2
2019-05-30T00:49:38.984Z,6
2019-05-30T00:50:14.953Z,6.1
2019-05-30T00:50:50.911Z,6.1
2019-05-30T00:51:27.022Z,6.1
2019-05-30T00:52:02.988Z,5.9
2019-05-30T00:52:38.936Z,6
2019-05-30T00:53:14.912Z,5.9
2019-05-30T00:53:51.003Z,5.9
2019-05-30T00:54:26.986Z,5.9
2019-05-30T00:55:03.273Z,5.9
2019-05-30T00:55:38.954Z,5.8
2019-05-30T00:56:15.028Z,5.8
2019-05-30T00:56:50.992Z,5.8
2019-05-30T00:57:26.956Z,5.7
2019-05-30T00:58:03.099Z,5.7
2019-05-30T00:58:39.023Z,5.7
2019-05-30T00:59:14.966Z,5.8
2019-05-30T00:59:50.955Z,5.8
2019-05-30T01:00:44.029Z,5.8
2019-05-30T01:01:03.467Z,5.9
2019-05-30T01:01:38.964Z,5.8
2019-05-30T01:02:14.939Z,5.8
2019-05-30T01:02:51.081Z,6
2019-05-30T01:03:26.986Z,6
2019-05-30T01:04:03.175Z,5.9
2019-05-30T01:04:45.667Z,6
2019-05-30T01:05:15.024Z,6
2019-05-30T01:05:50.986Z,6.1
2019-05-30T01:06:26.962Z,6.1
2019-05-30T01:07:05.095Z,6.1
2019-05-30T01:07:39.033Z,6.2
2019-05-30T01:08:14.984Z,6.1
2019-05-30T01:08:51.005Z,6.2
2019-05-30T01:09:26.919Z,6.2
2019-05-30T01:10:03.483Z,6.3
2019-05-30T01:10:38.982Z,6.3
2019-05-30T01:11:14.966Z,6.3
2019-05-30T01:11:50.926Z,6.4
2019-05-30T01:12:27.013Z,6.4
2019-05-30T01:13:03.418Z,6.3
2019-05-30T01:13:38.956Z,6.4
2019-05-30T01:14:14.915Z,6.3
2019-05-30T01:14:51.023Z,6.5
2019-05-30T01:15:26.996Z,6.4
2019-05-30T01:16:03.539Z,6.4
2019-05-30T01:16:42.901Z,6.3
2019-05-30T01:17:15.001Z,6.2
2019-05-30T01:17:50.979Z,6.3
2019-05-30T01:18:26.948Z,6.2
2019-05-30T01:19:03.525Z,6.3
2019-05-30T01:19:38.995Z,6.2
2019-05-30T01:20:14.992Z,6.2
2019-05-30T01:20:50.940Z,6.1
2019-05-30T01:21:26.909Z,6.2
2019-05-30T01:22:03.730Z,6.1
2019-05-30T01:22:38.964Z,6.1
2019-05-30T01:23:14.961Z,6
2019-05-30T01:23:51.044Z,6
2019-05-30T01:24:27.003Z,6
2019-05-30T01:25:05.974Z,5.8
2019-05-30T01:25:39.007Z,5.8
2019-05-30T01:26:15.013Z,5.7
2019-05-30T01:26:51.069Z,5.7
2019-05-30T01:27:26.967Z,5.7
2019-05-30T01:28:03.938Z,5.7
2019-05-30T01:28:39.027Z,5.6
2019-05-30T01:29:14.989Z,5.5
2019-05-30T01:29:50.962Z,5.5
2019-05-30T01:30:26.924Z,5.5
2019-05-30T01:31:09.950Z,5.4
2019-05-30T01:31:38.997Z,5.3
2019-05-30T01:32:14.947Z,5.2
2019-05-30T01:32:50.937Z,5.3
2019-05-30T01:33:27.026Z,5.3
2019-05-30T01:34:04.004Z,5.2
2019-05-30T01:34:38.951Z,5.1
2019-05-30T01:35:14.951Z,5.2
2019-05-30T01:35:51.021Z,5.1
2019-05-30T01:36:26.973Z,5.3
2019-05-30T01:37:04.081Z,5.2
2019-05-30T01:37:38.915Z,5.2
2019-05-30T01:38:15.014Z,5.4
2019-05-30T01:38:51.043Z,5.4
2019-05-30T01:39:26.952Z,5.4
2019-05-30T01:40:04.535Z,5.5
2019-05-30T01:40:39.029Z,5.7
2019-05-30T01:41:17.969Z,5.7
2019-05-30T01:42:04.138Z,5.8
2019-05-30T01:42:38.942Z,5.8
2019-05-30T01:43:14.914Z,5.8
2019-05-30T01:43:51.005Z,5.9
2019-05-30T01:44:26.962Z,5.9
2019-05-30T01:45:04.124Z,6
2019-05-30T01:45:38.946Z,6
2019-05-30T01:46:15.003Z,5.9
2019-05-30T01:46:50.978Z,5.9
2019-05-30T01:47:26.942Z,6
2019-05-30T01:48:04.547Z,5.9
2019-05-30T01:48:39.011Z,6
2019-05-30T01:49:14.966Z,6.1
2019-05-30T01:49:50.946Z,6
2019-05-30T01:50:27.012Z,6.1
2019-05-30T01:51:03.009Z,6.1
2019-05-30T01:51:38.964Z,6
2019-05-30T01:52:14.935Z,6.1
2019-05-30T01:52:51.287Z,6
2019-05-30T01:53:27.004Z,6.1
2019-05-30T01:54:03.004Z,6.1
2019-05-30T01:54:38.939Z,6.1
2019-05-30T01:55:15.050Z,6.1
2019-05-30T01:55:50.986Z,6.1
2019-05-30T01:56:26.957Z,6.1
2019-05-30T01:57:02.954Z,6.2
2019-05-30T01:57:39.021Z,6.2
2019-05-30T01:58:14.973Z,6.2
2019-05-30T01:58:50.968Z,6.1
2019-05-30T01:59:26.920Z,6.2
2019-05-30T02:00:20.959Z,6.1
2019-05-30T02:00:38.995Z,6.1
2019-05-30T02:01:25.481Z,6.1
2019-05-30T02:01:50.931Z,6.2
2019-05-30T02:02:27.019Z,6.2
2019-05-30T02:03:03.197Z,6.2
2019-05-30T02:03:38.967Z,6.3
2019-05-30T02:04:14.921Z,6.3
2019-05-30T02:04:51.004Z,6.3
2019-05-30T02:05:26.982Z,6.3
2019-05-30T02:06:03.678Z,6.3
2019-05-30T02:06:38.926Z,6.3
2019-05-30T02:07:14.998Z,6.3
2019-05-30T02:07:50.974Z,6.3
2019-05-30T02:08:26.946Z,6.4
2019-05-30T02:09:03.538Z,6.4
2019-05-30T02:09:39.005Z,6.2
2019-05-30T02:10:14.965Z,6.3
2019-05-30T02:10:50.959Z,6.3
2019-05-30T02:11:26.928Z,6.2
2019-05-30T02:12:03.958Z,6.2
2019-05-30T02:12:38.964Z,6.3
2019-05-30T02:13:14.943Z,6.4
2019-05-30T02:13:50.908Z,6.3
2019-05-30T02:14:27.002Z,6.3
2019-05-30T02:15:03.885Z,6.2
2019-05-30T02:15:38.946Z,6.3
2019-05-30T02:16:14.901Z,6.3
2019-05-30T02:16:51.004Z,6.3
2019-05-30T02:17:26.970Z,6.3
2019-05-30T02:18:03.861Z,6.2
2019-05-30T02:18:39.023Z,6.3
2019-05-30T02:19:15.001Z,6.3
2019-05-30T02:19:51.018Z,6.3
2019-05-30T02:20:26.928Z,6.3
2019-05-30T02:21:04.042Z,6.3
2019-05-30T02:21:38.990Z,6.3
2019-05-30T02:22:14.955Z,6.3
2019-05-30T02:22:50.921Z,6.3
2019-05-30T02:23:27.031Z,6.2
2019-05-30T02:24:04.104Z,6.3
2019-05-30T02:24:38.961Z,6.3
2019-05-30T02:25:14.933Z,6.2
2019-05-30T02:25:51.008Z,6.2
2019-05-30T02:26:26.989Z,6.3
2019-05-30T02:27:04.096Z,6.2
2019-05-30T02:27:38.910Z,6.2
2019-05-30T02:28:15.006Z,6.2
2019-05-30T02:28:50.981Z,6.2
2019-05-30T02:29:26.951Z,6.2
2019-05-30T02:30:06.555Z,6.2
2019-05-30T02:30:39.017Z,6.1
2019-05-30T02:31:14.980Z,6.1
2019-05-30T02:31:50.952Z,6.2
2019-05-30T02:32:26.917Z,6.1
2019-05-30T02:33:05.127Z,6.2
2019-05-30T02:33:38.972Z,6.1
2019-05-30T02:34:14.944Z,6
2019-05-30T02:34:50.945Z,6.1
2019-05-30T02:35:27.015Z,6.1
2019-05-30T02:36:05.916Z,6.1
2019-05-30T02:36:38.946Z,6.1
2019-05-30T02:37:14.917Z,6.1
2019-05-30T02:37:51.043Z,6
2019-05-30T02:38:26.978Z,6
2019-05-30T02:39:04.772Z,6
2019-05-30T02:39:38.901Z,6.1
2019-05-30T02:40:15.794Z,6.1
2019-05-30T02:40:50.978Z,6
2019-05-30T02:41:26.936Z,6
2019-05-30T02:42:05.175Z,6
2019-05-30T02:42:39.051Z,6
2019-05-30T02:43:14.968Z,6
2019-05-30T02:43:50.930Z,6
2019-05-30T02:44:26.910Z,6.1
2019-05-30T02:45:05.629Z,6.1
2019-05-30T02:45:38.969Z,6
2019-05-30T02:46:14.928Z,6
2019-05-30T02:46:51.022Z,6
2019-05-30T02:47:27.004Z,5.9
2019-05-30T02:48:05.338Z,6
2019-05-30T02:48:59.494Z,5.9
2019-05-30T02:49:50.989Z,5.9
2019-05-30T02:50:26.967Z,5.8
2019-05-30T02:51:05.372Z,5.9
2019-05-30T02:51:39.012Z,6
2019-05-30T02:52:14.991Z,5.9
2019-05-30T02:52:50.944Z,5.8
2019-05-30T02:53:26.916Z,5.9
2019-05-30T02:54:06.894Z,5.9
2019-05-30T02:54:38.997Z,6
2019-05-30T02:55:14.947Z,5.9
2019-05-30T02:55:50.935Z,5.9
2019-05-30T02:56:27.024Z,5.9
2019-05-30T02:57:05.117Z,5.9
2019-05-30T02:57:38.947Z,6
2019-05-30T02:58:14.933Z,5.9
2019-05-30T02:58:51.011Z,6
2019-05-30T02:59:26.993Z,6.1
2019-05-30T03:00:07.497Z,6
2019-05-30T03:00:38.940Z,6
2019-05-30T03:01:15.192Z,6
2019-05-30T03:02:04.429Z,6
2019-05-30T03:02:26.974Z,6
2019-05-30T03:03:06.373Z,6.1
2019-05-30T03:03:39.108Z,6.1
2019-05-30T03:04:14.973Z,6
2019-05-30T03:04:50.981Z,5.9
2019-05-30T03:05:27.025Z,6
2019-05-30T03:06:06.234Z,6
2019-05-30T03:06:38.975Z,6.1
2019-05-30T03:07:14.944Z,6.1
2019-05-30T03:07:50.912Z,6
2019-05-30T03:08:27.003Z,6
2019-05-30T03:09:06.016Z,6.1
2019-05-30T03:09:38.937Z,6
2019-05-30T03:10:15.847Z,6.1
2019-05-30T03:10:51.015Z,6.1
2019-05-30T03:11:26.979Z,6.1
2019-05-30T03:12:06.468Z,6.1
2019-05-30T03:12:39.037Z,6.1
2019-05-30T03:13:14.999Z,6.2
2019-05-30T03:13:50.964Z,6.1
2019-05-30T03:14:26.931Z,6.1
2019-05-30T03:15:07.282Z,6.1
2019-05-30T03:15:39.031Z,6.2
2019-05-30T03:16:14.986Z,6.2
2019-05-30T03:16:50.932Z,6.3
2019-05-30T03:17:27.033Z,6.2
2019-05-30T03:18:06.855Z,6.2
2019-05-30T03:18:38.942Z,6.3
2019-05-30T03:19:14.933Z,6.3
2019-05-30T03:19:51.147Z,6.3
2019-05-30T03:20:26.987Z,6.4
2019-05-30T03:21:05.427Z,6.4
2019-05-30T03:21:38.924Z,6.3
2019-05-30T03:22:15.006Z,6.5
2019-05-30T03:22:50.987Z,6.4
2019-05-30T03:23:26.953Z,6.4
2019-05-30T03:24:07.108Z,6.5
2019-05-30T03:24:39.028Z,6.5
2019-05-30T03:25:16.614Z,6.5
2019-05-30T03:25:50.986Z,6.6
2019-05-30T03:26:26.917Z,6.6
2019-05-30T03:27:06.406Z,6.6
2019-05-30T03:27:38.984Z,6.5
2019-05-30T03:28:14.963Z,6.5
2019-05-30T03:28:53.781Z,6.5
2019-05-30T03:29:27.001Z,6.6
2019-05-30T03:30:12.766Z,6.4
2019-05-30T03:30:38.959Z,6.5
2019-05-30T03:31:29.855Z,6.5
2019-05-30T03:31:51.009Z,6.5
2019-05-30T03:33:06.536Z,6.4
2019-05-30T03:33:18.454Z,6.4
2019-05-30T03:33:43.214Z,6.5
2019-05-30T03:34:28.104Z,6.5
2019-05-30T03:34:51.024Z,6.5
2019-05-30T03:35:39.131Z,6.5
2019-05-30T03:36:15.262Z,6.6
2019-05-30T03:37:28.955Z,6.5
2019-05-30T03:37:50.926Z,6.6
2019-05-30T03:38:26.898Z,6.5
2019-05-30T03:39:15.773Z,6.5
2019-05-30T03:39:50.975Z,6.5
2019-05-30T03:40:31.439Z,6.5
2019-05-30T03:41:06.741Z,6.6
2019-05-30T03:41:39.017Z,6.6
2019-05-30T03:42:16.375Z,6.5
2019-05-30T03:42:50.975Z,6.6
2019-05-30T03:43:26.932Z,6.5
2019-05-30T03:44:05.897Z,6.5
2019-05-30T03:44:39.002Z,6.5
2019-05-30T03:45:16.975Z,6.5
2019-05-30T03:45:50.939Z,6.5
2019-05-30T03:46:27.018Z,6.4
2019-05-30T03:47:06.144Z,6.5
2019-05-30T03:47:38.949Z,6.4
2019-05-30T03:48:16.693Z,6.5
2019-05-30T03:48:51.018Z,6.5
2019-05-30T03:49:26.980Z,6.5
2019-05-30T03:50:07.246Z,6.5
2019-05-30T03:50:38.911Z,6.4
2019-05-30T03:51:15.496Z,6.5
2019-05-30T03:51:51.012Z,6.5
2019-05-30T03:52:26.958Z,6.5
2019-05-30T03:53:06.522Z,6.6
2019-05-30T03:53:39.003Z,6.6
2019-05-30T03:54:16.415Z,6.5
2019-05-30T03:54:50.947Z,6.5
2019-05-30T03:55:26.920Z,6.6
2019-05-30T03:56:06.521Z,6.5
2019-05-30T03:56:38.958Z,6.6
2019-05-30T03:57:16.107Z,6.5
2019-05-30T03:57:50.911Z,6.6
2019-05-30T03:58:26.984Z,6.7
2019-05-30T03:59:03.000Z,6.7
2019-05-30T03:59:38.948Z,6.8
2019-05-30T04:00:16.362Z,6.7
2019-05-30T04:00:51.769Z,6.7
2019-05-30T04:01:27.018Z,6.7
2019-05-30T04:02:02.962Z,6.8
2019-05-30T04:02:57.837Z,6.8
2019-05-30T04:03:16.006Z,7
2019-05-30T04:03:50.984Z,7.1
2019-05-30T04:04:26.920Z,7.2
2019-05-30T04:05:02.967Z,7.4
2019-05-30T04:05:38.985Z,7.4
2019-05-30T04:06:16.822Z,7.5
2019-05-30T04:06:50.931Z,7.6
2019-05-30T04:07:26.897Z,7.7
2019-05-30T04:08:03.009Z,7.8
2019-05-30T04:08:38.958Z,8
2019-05-30T04:09:24.638Z,8.1
2019-05-30T04:09:50.896Z,8.1
2019-05-30T04:10:26.977Z,8.3
2019-05-30T04:11:02.957Z,8.3
2019-05-30T04:11:38.920Z,8.4
2019-05-30T04:12:16.968Z,8.5
2019-05-30T04:12:50.984Z,8.5
2019-05-30T04:13:27.017Z,8.6
2019-05-30T04:14:02.912Z,8.7
2019-05-30T04:14:39.008Z,8.7
2019-05-30T04:15:18.605Z,8.9
2019-05-30T04:15:50.995Z,8.9
2019-05-30T04:16:26.933Z,9.1
2019-05-30T04:17:02.996Z,9.2
2019-05-30T04:17:38.985Z,9.2
2019-05-30T04:18:16.814Z,9.2
2019-05-30T04:18:50.974Z,9.2
2019-05-30T04:19:27.009Z,9.2
2019-05-30T04:20:02.984Z,9.3
2019-05-30T04:20:38.944Z,9.2
2019-05-30T04:21:21.252Z,9.3
2019-05-30T04:21:50.998Z,9.2
2019-05-30T04:22:26.969Z,9.3
2019-05-30T04:23:02.925Z,9.4
2019-05-30T04:23:38.918Z,9.5
2019-05-30T04:24:16.634Z,9.5
2019-05-30T04:25:03.111Z,9.5
2019-05-30T04:25:38.995Z,9.6
2019-05-30T04:26:17.541Z,9.7
2019-05-30T04:26:50.904Z,9.7
2019-05-30T04:27:26.999Z,9.7
2019-05-30T04:28:02.968Z,9.7
2019-05-30T04:28:38.995Z,9.7
2019-05-30T04:29:18.732Z,9.7
2019-05-30T04:29:50.999Z,9.7
2019-05-30T04:30:26.960Z,9.8
2019-05-30T04:31:02.933Z,9.7
2019-05-30T04:31:38.905Z,9.8
2019-05-30T04:32:17.122Z,9.8
2019-05-30T04:32:50.960Z,9.7
2019-05-30T04:33:33.988Z,9.8
2019-05-30T04:34:02.945Z,9.9
2019-05-30T04:34:38.986Z,9.8
2019-05-30T04:35:16.916Z,9.7
2019-05-30T04:35:50.936Z,9.9
2019-05-30T04:36:26.891Z,9.9
2019-05-30T04:37:02.984Z,9.9
2019-05-30T04:37:38.965Z,9.9
2019-05-30T04:38:16.905Z,9.8
2019-05-30T04:38:50.894Z,10
2019-05-30T04:39:26.981Z,10
2019-05-30T04:40:02.983Z,10.1
2019-05-30T04:40:38.926Z,10
2019-05-30T04:41:20.492Z,10.1
2019-05-30T04:41:50.968Z,10.1
2019-05-30T04:42:26.991Z,10.1
2019-05-30T04:43:02.923Z,10
2019-05-30T04:43:38.886Z,10.2
2019-05-30T04:44:18.066Z,10.1
2019-05-30T04:45:03.011Z,10.1
2019-05-30T04:45:38.955Z,10.3
2019-05-30T04:46:19.457Z,10.3
2019-05-30T04:46:51.009Z,10.4
2019-05-30T04:47:26.983Z,10.4
2019-05-30T04:48:17.958Z,10.4
2019-05-30T04:48:50.951Z,10.5
2019-05-30T04:49:26.938Z,10.5
2019-05-30T04:50:03.052Z,10.5
2019-05-30T04:50:38.973Z,10.6
2019-05-30T04:51:26.960Z,10.5
2019-05-30T04:52:02.943Z,10.5
2019-05-30T04:52:38.926Z,10.3
2019-05-30T04:53:17.999Z,10.5
2019-05-30T04:53:50.962Z,10.4
2019-05-30T04:54:26.962Z,10.5
2019-05-30T04:55:20.483Z,10.6
2019-05-30T04:55:50.977Z,10.6
2019-05-30T04:56:26.981Z,10.7
2019-05-30T04:57:02.965Z,10.7
2019-05-30T04:57:38.934Z,10.8
2019-05-30T04:58:18.557Z,10.9
2019-05-30T04:58:51.001Z,11
2019-05-30T04:59:27.008Z,11
2019-05-30T05:00:02.962Z,11
2019-05-30T05:00:38.892Z,11.1
2019-05-30T05:01:26.912Z,11.1
2019-05-30T05:02:02.981Z,11.2
2019-05-30T05:02:38.949Z,11.2
2019-05-30T05:03:17.439Z,11.3
2019-05-30T05:03:50.912Z,11.4
2019-05-30T05:04:27.009Z,11.3
2019-05-30T05:05:02.966Z,11.4
2019-05-30T05:05:38.912Z,11.4
2019-05-30T05:06:17.375Z,11.4
2019-05-30T05:06:51.021Z,11.5
2019-05-30T05:07:26.940Z,11.6
2019-05-30T05:08:17.748Z,11.5
2019-05-30T05:08:50.911Z,11.6
2019-05-30T05:09:26.873Z,11.5
2019-05-30T05:10:26.945Z,11.7
2019-05-30T05:11:02.923Z,11.7
2019-05-30T05:11:38.973Z,11.8
2019-05-30T05:12:16.296Z,11.8
2019-05-30T05:13:02.945Z,11.9
2019-05-30T05:13:38.898Z,12.1
2019-05-30T05:14:15.966Z,12.1
2019-05-30T05:14:50.983Z,12
2019-05-30T05:15:26.922Z,12.1
2019-05-30T05:16:19.391Z,12.1
2019-05-30T05:16:38.884Z,12.2
2019-05-30T05:17:15.049Z,12.3
2019-05-30T05:17:50.940Z,12.3
2019-05-30T05:18:26.889Z,12.3
2019-05-30T05:19:02.863Z,12.3
2019-05-30T05:19:50.915Z,12.3
2019-05-30T05:20:26.952Z,12.4
2019-05-30T05:21:03.000Z,12.3
2019-05-30T05:21:38.886Z,12.4
2019-05-30T05:22:26.911Z,12.4
2019-05-30T05:23:02.858Z,12.5
2019-05-30T05:23:38.953Z,12.5
2019-05-30T05:24:15.686Z,12.5
2019-05-30T05:25:02.943Z,12.5
2019-05-30T05:25:38.886Z,12.4
2019-05-30T05:26:15.713Z,12.5
2019-05-30T05:26:50.974Z,12.5
2019-05-30T05:27:26.944Z,12.6
2019-05-30T05:28:16.051Z,12.6
2019-05-30T05:28:50.885Z,12.6
2019-05-30T05:29:26.859Z,12.7
2019-05-30T05:30:02.997Z,12.6
2019-05-30T05:30:38.922Z,12.8
2019-05-30T05:31:16.010Z,12.8
2019-05-30T05:31:50.978Z,12.8
2019-05-30T05:32:26.929Z,12.8
2019-05-30T05:33:02.910Z,12.8
2019-05-30T05:33:38.886Z,12.7
2019-05-30T05:34:14.954Z,12.8
2019-05-30T05:34:52.518Z,12.9
2019-05-30T05:35:26.922Z,12.7
2019-05-30T05:36:02.882Z,12.8
2019-05-30T05:36:39.003Z,13
2019-05-30T05:37:15.214Z,13
2019-05-30T05:37:50.905Z,13.1
2019-05-30T05:38:38.920Z,13.3
2019-05-30T05:39:16.337Z,13.4
2019-05-30T05:39:50.967Z,13.4
2019-05-30T05:40:26.978Z,13.5
2019-05-30T05:41:02.937Z,13.6
2019-05-30T05:41:38.877Z,13.6
2019-05-30T05:42:16.271Z,13.7
2019-05-30T05:42:50.936Z,13.7
2019-05-30T05:43:26.902Z,13.7
2019-05-30T05:44:02.864Z,13.7
2019-05-30T05:44:38.961Z,13.7
2019-05-30T05:45:16.188Z,13.8
2019-05-30T05:45:50.986Z,13.9
2019-05-30T05:46:26.876Z,14
2019-05-30T05:47:02.962Z,14
2019-05-30T05:47:38.919Z,13.8
2019-05-30T05:48:14.877Z,13.9
2019-05-30T05:48:50.854Z,13.9
2019-05-30T05:49:26.948Z,14
2019-05-30T05:50:02.941Z,14
2019-05-30T05:50:38.913Z,14.1
2019-05-30T05:51:14.872Z,14.1
2019-05-30T05:51:50.954Z,14.2
2019-05-30T05:52:26.915Z,14.1
2019-05-30T05:53:02.893Z,14.3
2019-05-30T05:53:38.909Z,14.3
2019-05-30T05:54:14.951Z,14.2
2019-05-30T05:54:50.924Z,14.3
2019-05-30T05:55:26.887Z,14.2
2019-05-30T05:56:02.847Z,14.2
2019-05-30T05:56:38.962Z,14.4
2019-05-30T05:57:14.910Z,14.4
2019-05-30T05:57:50.880Z,14.5
2019-05-30T05:58:26.891Z,14.6
2019-05-30T05:59:02.940Z,14.6
2019-05-30T05:59:38.907Z,14.7
2019-05-30T06:00:14.877Z,15
2019-05-30T06:00:51.090Z,14.9
2019-05-30T06:01:26.957Z,14.8
2019-05-30T06:02:02.911Z,14.9
2019-05-30T06:02:38.873Z,14.7
2019-05-30T06:03:18.788Z,14.8
2019-05-30T06:03:50.933Z,14.9
2019-05-30T06:04:27.646Z,15
2019-05-30T06:05:02.875Z,15
2019-05-30T06:05:53.627Z,15
2019-05-30T06:06:14.951Z,15.3
2019-05-30T06:06:50.895Z,15.4
2019-05-30T06:07:26.867Z,15.2
2019-05-30T06:08:02.851Z,15.2
2019-05-30T06:08:38.944Z,15.1
2019-05-30T06:09:14.905Z,15.3
2019-05-30T06:09:50.859Z,15.2
2019-05-30T06:10:28.263Z,15.2
2019-05-30T06:11:02.928Z,15.4
2019-05-30T06:11:38.903Z,15.5
2019-05-30T06:12:14.863Z,15.6
2019-05-30T06:12:50.894Z,15.7
2019-05-30T06:13:26.918Z,15.6
2019-05-30T06:14:02.893Z,15.6
2019-05-30T06:14:38.864Z,15.8
2019-05-30T06:15:14.847Z,15.8
2019-05-30T06:15:50.910Z,15.8
2019-05-30T06:16:28.287Z,15.8
2019-05-30T06:17:02.877Z,16
2019-05-30T06:17:38.823Z,16.1
2019-05-30T06:18:14.919Z,16.1
2019-05-30T06:18:50.879Z,16.2
2019-05-30T06:19:27.788Z,16.3
2019-05-30T06:20:02.831Z,16.3
2019-05-30T06:20:38.905Z,16.3
2019-05-30T06:21:14.902Z,16.2
2019-05-30T06:21:54.763Z,16.2
2019-05-30T06:22:27.848Z,16.2
2019-05-30T06:23:02.905Z,16.2
2019-05-30T06:23:38.873Z,16.2
2019-05-30T06:24:14.842Z,16.1
2019-05-30T06:25:03.040Z,16.1
2019-05-30T06:25:38.943Z,16.2
2019-05-30T06:26:14.927Z,16.3
2019-05-30T06:26:50.864Z,16.4
2019-05-30T06:27:27.898Z,16.3
2019-05-30T06:28:02.929Z,16.4
2019-05-30T06:28:38.896Z,16.4
2019-05-30T06:29:14.877Z,16.4
2019-05-30T06:29:50.836Z,16.4
2019-05-30T06:30:26.930Z,16.5
2019-05-30T06:31:02.911Z,16.5
2019-05-30T06:31:38.862Z,16.5
2019-05-30T06:32:14.855Z,16.3
2019-05-30T06:32:50.929Z,16.4
2019-05-30T06:33:38.928Z,16.5
2019-05-30T06:34:38.256Z,16.6
2019-05-30T06:34:50.887Z,16.7
2019-05-30T06:35:27.740Z,16.7
2019-05-30T06:36:02.967Z,16.8
2019-05-30T06:36:38.903Z,17
2019-05-30T06:37:14.863Z,16.9
2019-05-30T06:37:50.969Z,17
2019-05-30T06:38:27.711Z,17
2019-05-30T06:39:02.890Z,17.1
2019-05-30T06:39:38.854Z,17.1
2019-05-30T06:40:14.828Z,17
2019-05-30T06:40:50.913Z,17.1
2019-05-30T06:41:28.017Z,17.2
2019-05-30T06:42:02.854Z,17
2019-05-30T06:42:38.832Z,16.9
2019-05-30T06:43:14.912Z,17
2019-05-30T06:43:50.899Z,17
2019-05-30T06:44:27.820Z,17.1
2019-05-30T06:45:02.825Z,17.2
2019-05-30T06:45:38.908Z,17.2
2019-05-30T06:46:14.885Z,17.2
2019-05-30T06:46:50.948Z,17.3
2019-05-30T06:47:26.817Z,17.3
2019-05-30T06:48:02.910Z,17.3
2019-05-30T06:48:38.882Z,17.2
2019-05-30T06:49:14.846Z,17.3
2019-05-30T06:49:50.833Z,17.2
2019-05-30T06:50:27.175Z,17.2
2019-05-30T06:51:02.871Z,17.2
2019-05-30T06:51:38.838Z,17.2
2019-05-30T06:52:14.831Z,17.2
2019-05-30T06:52:51.079Z,17.3
2019-05-30T06:53:27.597Z,17.4
2019-05-30T06:54:02.835Z,17.5
2019-05-30T06:54:38.857Z,17.6
2019-05-30T06:55:14.900Z,17.6
2019-05-30T06:55:50.877Z,17.7
2019-05-30T06:56:27.783Z,17.7
2019-05-30T06:57:02.801Z,17.9
2019-05-30T06:57:38.948Z,18
2019-05-30T06:58:14.885Z,18
2019-05-30T06:58:50.841Z,18.1
2019-05-30T06:59:27.931Z,18.1
2019-05-30T07:00:02.889Z,18
2019-05-30T07:00:38.864Z,18.2
2019-05-30T07:01:14.846Z,18.2
2019-05-30T07:01:52.543Z,18.1
2019-05-30T07:02:28.074Z,18.1
2019-05-30T07:03:02.967Z,18.1
2019-05-30T07:03:38.903Z,17.9
2019-05-30T07:04:15.705Z,17.9
2019-05-30T07:04:53.123Z,18
2019-05-30T07:05:31.576Z,17.9
2019-05-30T07:06:03.820Z,17.8
2019-05-30T07:06:39.364Z,17.6
2019-05-30T07:07:15.177Z,17.6
2019-05-30T07:07:51.266Z,17.6
2019-05-30T07:08:27.030Z,17.7
2019-05-30T07:09:02.800Z,17.6
2019-05-30T07:09:38.910Z,17.8
2019-05-30T07:10:14.871Z,17.8
2019-05-30T07:10:50.834Z,17.8
2019-05-30T07:11:27.077Z,17.8
2019-05-30T07:12:02.882Z,17.8
2019-05-30T07:12:38.861Z,17.8
2019-05-30T07:13:14.834Z,18
2019-05-30T07:13:50.777Z,17.9
2019-05-30T07:14:27.560Z,17.8
2019-05-30T07:15:02.854Z,17.9
2019-05-30T07:15:38.812Z,18
2019-05-30T07:16:14.845Z,18.1
2019-05-30T07:16:50.884Z,18.3
2019-05-30T07:17:27.731Z,18.4
2019-05-30T07:18:02.837Z,18.8
2019-05-30T07:18:38.787Z,18.9
2019-05-30T07:19:14.876Z,18.8
2019-05-30T07:19:50.834Z,18.7
2019-05-30T07:20:27.765Z,18.7
2019-05-30T07:21:02.795Z,18.7
2019-05-30T07:21:38.869Z,18.6
2019-05-30T07:22:14.842Z,18.6
2019-05-30T07:22:50.806Z,18.5
2019-05-30T07:23:28.028Z,18.4
2019-05-30T07:24:02.867Z,18.5
2019-05-30T07:24:38.834Z,18.3
2019-05-30T07:25:14.789Z,18.3
2019-05-30T07:25:50.789Z,18.3
2019-05-30T07:26:27.959Z,18.4
2019-05-30T07:27:02.835Z,18.4
2019-05-30T07:27:38.802Z,18.6
2019-05-30T07:28:14.903Z,18.8
2019-05-30T07:28:50.852Z,18.9
2019-05-30T07:29:28.167Z,19
2019-05-30T07:30:02.787Z,18.9
2019-05-30T07:30:38.880Z,18.8
2019-05-30T07:31:14.857Z,18.8
2019-05-30T07:31:50.824Z,18.9
2019-05-30T07:32:27.869Z,18.9
2019-05-30T07:33:02.893Z,18.9
2019-05-30T07:33:38.861Z,18.9
2019-05-30T07:34:14.819Z,19.2
2019-05-30T07:35:07.333Z,19.2
2019-05-30T07:35:27.938Z,19.2
2019-05-30T07:36:02.847Z,18.9
2019-05-30T07:36:38.808Z,18.8
2019-05-30T07:37:14.792Z,18.9
2019-05-30T07:37:50.871Z,18.7
2019-05-30T07:38:26.970Z,18.8
2019-05-30T07:39:02.839Z,18.9
2019-05-30T07:39:38.796Z,18.8
2019-05-30T07:40:19.957Z,18.9
2019-05-30T07:40:50.875Z,18.9
2019-05-30T07:41:27.263Z,18.8
2019-05-30T07:42:14.819Z,18.7
2019-05-30T07:42:50.803Z,18.7
2019-05-30T07:43:30.157Z,18.5
2019-05-30T07:44:02.842Z,18.7
2019-05-30T07:44:38.808Z,18.6
2019-05-30T07:45:14.788Z,18.8
2019-05-30T07:45:58.742Z,18.9
2019-05-30T07:46:27.086Z,18.8
2019-05-30T07:47:02.803Z,18.9
2019-05-30T07:47:38.995Z,19
2019-05-30T07:48:14.862Z,19.1
2019-05-30T07:48:50.853Z,19.3
2019-05-30T07:49:26.799Z,19.6
2019-05-30T07:50:02.777Z,19.8
2019-05-30T07:50:50.810Z,19.9
2019-05-30T07:51:26.874Z,20.1
2019-05-30T07:52:02.830Z,20.1
2019-05-30T07:52:39.381Z,20
2019-05-30T07:53:14.833Z,20.1
2019-05-30T07:53:50.879Z,20.1
2019-05-30T07:54:27.159Z,20.1
2019-05-30T07:55:02.804Z,20
2019-05-30T07:55:39.632Z,19.9
2019-05-30T07:56:14.853Z,19.7
2019-05-30T07:56:50.836Z,19.7
2019-05-30T07:57:27.884Z,19.8
2019-05-30T07:58:02.771Z,19.8
2019-05-30T07:58:38.854Z,19.8
2019-05-30T07:59:27.134Z,19.6
2019-05-30T08:00:02.820Z,19.8
2019-05-30T08:00:38.789Z,19.9
2019-05-30T08:01:14.771Z,19.9
2019-05-30T08:01:50.869Z,20
2019-05-30T08:02:27.828Z,20
2019-05-30T08:03:02.800Z,20.1
2019-05-30T08:03:39.181Z,20.1
2019-05-30T08:04:14.883Z,20.2
2019-05-30T08:04:50.873Z,20
2019-05-30T08:05:27.057Z,20
2019-05-30T08:06:02.784Z,20
2019-05-30T08:06:38.849Z,19.9
2019-05-30T08:07:14.811Z,19.9
2019-05-30T08:07:50.780Z,20
2019-05-30T08:08:28.382Z,20.1
2019-05-30T08:09:02.842Z,20.2
2019-05-30T08:09:39.602Z,20.3
2019-05-30T08:10:14.856Z,20.4
2019-05-30T08:10:50.746Z,20.1
2019-05-30T08:11:27.102Z,19.9
2019-05-30T08:12:02.823Z,19.8
2019-05-30T08:12:38.794Z,19.7
2019-05-30T08:13:14.741Z,19.8
2019-05-30T08:13:50.824Z,19.5
2019-05-30T08:14:27.273Z,19.4
2019-05-30T08:15:02.781Z,19.5
2019-05-30T08:15:44.363Z,19.6
2019-05-30T08:16:14.831Z,19.4
2019-05-30T08:16:50.804Z,19.4
2019-05-30T08:17:27.604Z,19.3
2019-05-30T08:18:02.759Z,19.3